createdAt,value
2022-08-02T00:00:24.330Z,19.98
2022-08-02T00:15:23.665Z,19.85
2022-08-02T00:30:23.410Z,19.85
2022-08-02T00:45:23.518Z,19.85
2022-08-02T01:00:23.468Z,19.58
2022-08-02T01:15:23.595Z,19.30
2022-08-02T01:30:23.435Z,19.30
2022-08-02T01:45:23.472Z,19.15
2022-08-02T02:00:23.367Z,19.07
2022-08-02T02:15:23.768Z,18.85
2022-08-02T02:30:23.584Z,18.77
2022-08-02T02:45:23.451Z,18.73
2022-08-02T03:00:23.629Z,18.35
2022-08-02T03:15:23.651Z,18.33
2022-08-02T03:30:23.484Z,18.12
2022-08-02T03:45:23.735Z,18.17
2022-08-02T04:00:23.538Z,17.75
2022-08-02T04:15:23.693Z,17.83
2022-08-02T04:30:23.861Z,17.40
2022-08-02T04:45:24.072Z,17.62
2022-08-02T05:00:25.128Z,17.53
2022-08-02T05:15:23.856Z,17.60
2022-08-02T05:30:23.744Z,17.73
2022-08-02T05:45:23.924Z,17.90
2022-08-02T06:00:23.974Z,18.15
2022-08-02T06:15:24.399Z,18.23
2022-08-02T06:30:23.703Z,19.25
2022-08-02T06:45:23.905Z,21.15
2022-08-02T07:00:23.844Z,22.33
2022-08-02T07:15:24.104Z,22.27
2022-08-02T07:30:24.272Z,23.77
2022-08-02T07:45:24.158Z,24.48
2022-08-02T08:00:24.136Z,26.10
2022-08-02T08:15:24.118Z,24.80
2022-08-02T08:30:24.252Z,24.53
2022-08-02T08:45:24.311Z,24.85
2022-08-02T09:00:33.527Z,24.90
2022-08-02T09:15:23.313Z,24.37
2022-08-02T09:30:23.530Z,24.67
2022-08-02T09:45:23.284Z,24.50
2022-08-02T10:00:43.550Z,24.92
2022-08-02T10:15:27.249Z,24.75
2022-08-02T10:30:23.412Z,25.18
2022-08-02T10:45:23.442Z,25.50
2022-08-02T11:00:23.456Z,25.37
2022-08-02T11:15:23.484Z,25.67
2022-08-02T11:30:26.590Z,26.60
2022-08-02T11:45:27.536Z,26.23
2022-08-02T12:00:23.650Z,26.45
2022-08-02T12:15:23.843Z,26.50
2022-08-02T12:30:27.698Z,26.98
2022-08-02T12:45:23.656Z,27.17
2022-08-02T13:00:23.647Z,27.33
2022-08-02T13:15:50.223Z,27.92
2022-08-02T13:30:23.633Z,28.17
2022-08-02T13:45:23.730Z,28.35
2022-08-02T14:00:35.828Z,28.40
2022-08-02T14:15:23.613Z,28.75
2022-08-02T14:30:24.059Z,28.80
2022-08-02T14:45:23.805Z,28.92
2022-08-02T15:00:24.388Z,29.25
2022-08-02T15:15:23.898Z,29.40
2022-08-02T15:30:23.872Z,29.35
2022-08-02T15:45:23.869Z,29.87
2022-08-02T16:00:23.930Z,29.98
2022-08-02T16:15:23.884Z,30.53
2022-08-02T16:30:24.000Z,30.62
2022-08-02T16:45:23.996Z,30.52
2022-08-02T17:00:24.704Z,30.17
2022-08-02T17:16:01.428Z,29.70
2022-08-02T17:30:26.237Z,29.12
2022-08-02T17:45:25.711Z,28.45
2022-08-02T18:00:24.686Z,27.60
2022-08-02T18:15:24.087Z,27.17
2022-08-02T18:30:28.476Z,26.62
2022-08-02T18:45:24.086Z,25.50
2022-08-02T19:00:25.635Z,25.80
2022-08-02T19:15:24.336Z,25.45
2022-08-02T19:30:33.223Z,24.95
2022-08-02T19:45:49.650Z,24.50
2022-08-02T20:00:33.501Z,24.43
2022-08-02T20:15:23.431Z,24.00
2022-08-02T20:30:25.589Z,23.70
2022-08-02T20:45:23.480Z,23.20
2022-08-02T21:00:23.596Z,23.27
2022-08-02T21:15:23.537Z,22.77
2022-08-02T21:45:23.414Z,22.33
2022-08-02T22:00:35.203Z,23.50
2022-08-02T22:15:25.912Z,22.03
2022-08-02T22:30:23.541Z,21.45
2022-08-02T22:45:23.584Z,21.25
2022-08-02T22:59:02.909Z,21.90
2022-08-02T23:00:23.524Z,21.33
2022-08-02T23:15:23.511Z,20.83
2022-08-02T23:30:23.650Z,20.87
2022-08-02T23:45:23.596Z,20.50
